createdAt,value
2022-08-31T00:00:34.563Z,6.57
2022-08-31T00:03:01.116Z,6.72
2022-08-31T00:05:27.674Z,6.35
2022-08-31T00:07:54.459Z,5.63
2022-08-31T00:10:32.207Z,5.25
2022-08-31T00:13:03.236Z,5.60
2022-08-31T00:15:30.642Z,6.00
2022-08-31T00:17:58.041Z,6.78
2022-08-31T00:20:33.398Z,6.90
2022-08-31T00:23:10.349Z,5.18
2022-08-31T00:25:38.714Z,5.55
2022-08-31T00:28:06.256Z,4.50
2022-08-31T00:30:33.790Z,4.47
2022-08-31T00:33:00.401Z,3.83
2022-08-31T00:35:28.447Z,3.88
2022-08-31T00:37:55.337Z,4.07
2022-08-31T00:40:22.170Z,3.67
2022-08-31T00:42:48.779Z,3.55
2022-08-31T00:45:15.512Z,3.60
2022-08-31T00:47:42.102Z,3.22
2022-08-31T00:50:12.775Z,3.60
2022-08-31T00:52:42.907Z,4.72
2022-08-31T00:55:19.578Z,4.25
2022-08-31T00:57:49.270Z,5.50
2022-08-31T01:00:21.305Z,5.00
2022-08-31T01:02:48.967Z,5.15
2022-08-31T01:05:17.231Z,4.03
2022-08-31T01:07:46.856Z,5.30
2022-08-31T01:10:15.002Z,4.60
2022-08-31T01:12:43.610Z,4.10
2022-08-31T01:15:14.463Z,5.45
2022-08-31T01:17:43.131Z,5.03
2022-08-31T01:20:17.039Z,4.88
2022-08-31T01:22:51.709Z,5.00
2022-08-31T01:25:20.054Z,4.40
2022-08-31T01:27:47.354Z,4.30
2022-08-31T01:30:22.237Z,4.75
2022-08-31T01:32:48.939Z,5.18
2022-08-31T01:35:16.138Z,4.65
2022-08-31T01:37:43.214Z,5.28
2022-08-31T01:40:11.818Z,4.95
2022-08-31T01:42:38.546Z,4.97
2022-08-31T01:45:06.630Z,5.63
2022-08-31T01:47:33.171Z,6.07
2022-08-31T01:49:59.722Z,5.40
2022-08-31T01:52:28.003Z,5.05
2022-08-31T01:54:55.578Z,5.85
2022-08-31T01:57:24.412Z,6.13
2022-08-31T02:00:02.717Z,8.02
2022-08-31T02:02:29.310Z,8.15
2022-08-31T02:04:55.869Z,7.97
2022-08-31T02:07:22.462Z,7.72
2022-08-31T02:09:48.960Z,8.93
2022-08-31T02:12:17.461Z,8.70
2022-08-31T02:14:44.042Z,8.55
2022-08-31T02:17:10.601Z,9.50
2022-08-31T02:19:37.140Z,9.93
2022-08-31T02:22:03.780Z,9.18
2022-08-31T02:24:30.322Z,9.95
2022-08-31T02:26:57.073Z,9.88
2022-08-31T02:29:23.653Z,11.23
2022-08-31T02:31:50.282Z,11.75
2022-08-31T02:34:16.907Z,10.38
2022-08-31T02:36:44.271Z,9.18
2022-08-31T02:39:12.330Z,9.80
2022-08-31T02:41:41.014Z,8.70
2022-08-31T02:44:07.663Z,9.07
2022-08-31T02:46:34.677Z,8.38
2022-08-31T02:49:01.542Z,7.80
2022-08-31T02:51:28.026Z,8.75
2022-08-31T02:53:54.631Z,9.02
2022-08-31T02:56:21.496Z,10.10
2022-08-31T02:58:47.995Z,9.40
2022-08-31T03:01:14.587Z,8.27
2022-08-31T03:03:41.159Z,8.13
2022-08-31T03:06:13.818Z,7.85
2022-08-31T03:08:40.468Z,7.70
2022-08-31T03:11:07.003Z,7.28
2022-08-31T03:13:33.570Z,7.80
2022-08-31T03:16:00.210Z,6.20
2022-08-31T03:18:26.812Z,7.18
2022-08-31T03:20:53.384Z,5.75
2022-08-31T03:23:20.228Z,5.88
2022-08-31T03:25:47.328Z,6.28
2022-08-31T03:28:14.388Z,4.80
2022-08-31T03:30:41.722Z,6.00
2022-08-31T03:33:08.600Z,5.90
2022-08-31T03:35:35.349Z,4.85
2022-08-31T03:38:01.920Z,5.40
2022-08-31T03:40:28.854Z,6.05
2022-08-31T03:42:55.492Z,7.82
2022-08-31T03:45:22.098Z,8.45
2022-08-31T03:47:48.649Z,9.93
2022-08-31T03:50:15.667Z,9.20
2022-08-31T03:52:42.639Z,8.60
2022-08-31T03:55:10.410Z,7.18
2022-08-31T03:57:36.949Z,9.13
2022-08-31T04:00:05.826Z,7.82
2022-08-31T04:02:37.399Z,6.70
2022-08-31T04:05:04.524Z,8.15
2022-08-31T04:07:31.154Z,8.35
2022-08-31T04:10:09.321Z,8.93
2022-08-31T04:12:35.883Z,11.68
2022-08-31T04:15:02.468Z,9.82
2022-08-31T04:17:29.006Z,8.25
2022-08-31T04:19:55.599Z,7.22
2022-08-31T04:22:22.121Z,7.88
2022-08-31T04:24:48.687Z,7.25
2022-08-31T04:27:15.226Z,7.40
2022-08-31T04:29:41.755Z,6.13
2022-08-31T04:32:08.369Z,9.68
2022-08-31T04:34:34.925Z,11.48
2022-08-31T04:37:01.522Z,9.75
2022-08-31T04:39:28.163Z,10.38
2022-08-31T04:41:59.371Z,9.30
2022-08-31T04:44:25.947Z,9.38
2022-08-31T04:46:52.548Z,9.43
2022-08-31T04:49:19.250Z,9.43
2022-08-31T04:51:45.788Z,9.52
2022-08-31T04:54:13.844Z,12.15
2022-08-31T04:56:45.571Z,11.60
2022-08-31T04:59:15.209Z,12.05
2022-08-31T05:01:44.510Z,11.02
2022-08-31T05:04:14.502Z,9.98
2022-08-31T05:06:43.614Z,12.18
2022-08-31T05:09:14.770Z,10.65
2022-08-31T05:11:42.407Z,11.75
2022-08-31T05:14:10.017Z,9.98
2022-08-31T05:16:40.397Z,10.93
2022-08-31T05:19:07.627Z,10.30
2022-08-31T05:21:37.049Z,13.50
2022-08-31T05:24:13.140Z,12.13
2022-08-31T05:26:44.478Z,12.35
2022-08-31T05:29:12.599Z,13.35
2022-08-31T05:31:39.241Z,14.57
2022-08-31T05:34:06.513Z,13.93
2022-08-31T05:36:34.131Z,13.75
2022-08-31T05:39:01.613Z,14.73
2022-08-31T05:41:29.931Z,14.07
2022-08-31T05:43:56.855Z,18.15
2022-08-31T05:46:23.690Z,16.38
2022-08-31T05:48:50.322Z,17.55
2022-08-31T05:51:18.570Z,18.40
2022-08-31T05:53:46.094Z,17.55
2022-08-31T05:56:16.179Z,18.10
2022-08-31T05:58:47.356Z,16.35
2022-08-31T06:01:35.142Z,17.75
2022-08-31T06:04:02.644Z,17.52
2022-08-31T06:06:29.841Z,15.93
2022-08-31T06:08:57.245Z,15.70
2022-08-31T06:11:26.937Z,15.70
2022-08-31T06:13:56.493Z,17.25
2022-08-31T06:16:23.184Z,15.55
2022-08-31T06:18:50.641Z,16.27
2022-08-31T06:21:26.619Z,17.33
2022-08-31T06:23:55.095Z,16.65
2022-08-31T06:26:22.999Z,15.88
2022-08-31T06:28:51.986Z,16.10
2022-08-31T06:31:25.787Z,17.35
2022-08-31T06:33:53.250Z,21.60
2022-08-31T06:36:21.994Z,23.77
2022-08-31T06:38:48.605Z,20.33
2022-08-31T06:41:21.586Z,24.40
2022-08-31T06:43:48.726Z,24.23
2022-08-31T06:46:16.429Z,26.80
2022-08-31T06:48:43.458Z,26.67
2022-08-31T06:51:11.396Z,17.40
2022-08-31T06:53:39.967Z,16.13
2022-08-31T06:56:16.500Z,16.70
2022-08-31T06:58:48.158Z,14.23
2022-08-31T07:01:34.866Z,14.98
2022-08-31T07:04:04.814Z,13.48
2022-08-31T07:06:35.121Z,13.23
2022-08-31T07:09:04.887Z,17.73
2022-08-31T07:11:35.533Z,16.27
2022-08-31T07:14:03.613Z,17.60
2022-08-31T07:16:30.471Z,18.77
2022-08-31T07:19:00.258Z,17.80
2022-08-31T07:21:36.210Z,16.13
2022-08-31T07:24:04.700Z,20.95
2022-08-31T07:26:46.471Z,17.33
2022-08-31T07:29:15.740Z,17.50
2022-08-31T07:31:42.998Z,15.57
2022-08-31T07:34:09.668Z,16.98
2022-08-31T08:37:58.416Z,14.55
2022-08-31T08:40:47.001Z,15.45
2022-08-31T08:43:17.191Z,12.93
2022-08-31T08:45:53.140Z,11.40
2022-08-31T08:48:23.727Z,10.82
2022-08-31T08:50:50.350Z,10.63
2022-08-31T08:53:17.881Z,15.60
2022-08-31T08:55:44.558Z,12.93
2022-08-31T08:58:13.470Z,15.30
2022-08-31T09:00:40.973Z,14.27
2022-08-31T09:03:32.331Z,11.40
2022-08-31T09:06:54.286Z,14.73
2022-08-31T09:09:36.382Z,13.23
2022-08-31T09:12:14.521Z,11.63
2022-08-31T09:15:00.365Z,14.65
2022-08-31T09:17:29.653Z,13.43
2022-08-31T09:19:56.221Z,10.52
2022-08-31T09:22:22.726Z,11.90
2022-08-31T09:24:52.063Z,10.43
2022-08-31T09:27:38.901Z,9.18
2022-08-31T09:30:06.206Z,8.88
2022-08-31T09:32:35.705Z,8.60
2022-08-31T09:35:09.591Z,10.88
2022-08-31T09:37:38.785Z,9.30
2022-08-31T09:40:23.817Z,8.60
2022-08-31T09:43:03.901Z,9.65
2022-08-31T09:45:30.518Z,7.30
2022-08-31T09:47:57.645Z,9.00
2022-08-31T09:50:45.212Z,7.32
2022-08-31T09:53:29.858Z,10.00
2022-08-31T09:56:31.747Z,5.65
2022-08-31T09:59:01.069Z,8.90
2022-08-31T10:01:39.636Z,10.25
2022-08-31T10:04:14.658Z,7.55
2022-08-31T10:06:45.140Z,6.93
2022-08-31T10:09:35.254Z,8.73
2022-08-31T10:12:07.345Z,6.93
2022-08-31T10:14:43.360Z,8.25
2022-08-31T10:17:17.132Z,6.20
2022-08-31T10:19:55.658Z,6.22
2022-08-31T10:22:47.166Z,6.35
2022-08-31T10:25:18.338Z,8.80
2022-08-31T10:28:07.318Z,5.82
2022-08-31T10:30:46.052Z,4.97
2022-08-31T10:33:19.384Z,5.15
2022-08-31T10:35:57.412Z,5.55
2022-08-31T10:38:44.637Z,6.80
2022-08-31T10:41:34.912Z,5.45
2022-08-31T10:44:22.221Z,5.88
2022-08-31T10:46:48.764Z,4.80
2022-08-31T10:49:15.296Z,6.00
2022-08-31T10:52:01.270Z,5.80
2022-08-31T10:54:37.053Z,5.97
2022-08-31T10:57:37.429Z,5.88
2022-08-31T11:00:10.146Z,7.20
2022-08-31T11:03:05.292Z,6.13
2022-08-31T11:05:48.635Z,4.88
2022-08-31T11:08:29.127Z,5.88
2022-08-31T11:10:58.133Z,5.68
2022-08-31T11:13:50.813Z,5.18
2022-08-31T11:16:30.957Z,5.63
2022-08-31T11:19:30.235Z,4.63
2022-08-31T11:22:31.253Z,4.00
2022-08-31T11:25:19.699Z,5.03
2022-08-31T11:28:28.843Z,4.88
2022-08-31T11:30:55.839Z,7.03
2022-08-31T11:33:25.895Z,5.13
2022-08-31T11:35:59.801Z,4.60
2022-08-31T11:38:48.825Z,4.55
2022-08-31T11:41:38.689Z,5.10
2022-08-31T11:44:08.175Z,4.13
2022-08-31T11:46:34.798Z,3.70
2022-08-31T11:49:01.406Z,4.60
2022-08-31T11:51:27.865Z,6.63
2022-08-31T11:53:54.511Z,5.53
2022-08-31T11:56:37.282Z,4.43
2022-08-31T11:59:28.552Z,5.00
2022-08-31T12:01:56.611Z,3.90
2022-08-31T12:04:35.377Z,4.68
2022-08-31T12:07:04.837Z,4.72
2022-08-31T12:09:46.607Z,4.30
2022-08-31T12:12:37.980Z,4.50
2022-08-31T12:15:32.765Z,5.22
2022-08-31T12:18:02.327Z,3.45
2022-08-31T12:20:47.403Z,4.03
2022-08-31T12:23:30.050Z,3.60
2022-08-31T12:28:31.711Z,5.18
2022-08-31T12:31:04.524Z,3.58
2022-08-31T12:33:31.618Z,3.78
2022-08-31T12:36:14.393Z,5.65
2022-08-31T12:38:41.283Z,4.13
2022-08-31T12:41:11.252Z,4.63
2022-08-31T12:43:43.723Z,4.10
2022-08-31T12:46:46.712Z,3.43
2022-08-31T12:49:16.060Z,3.97
2022-08-31T12:51:57.702Z,4.40
2022-08-31T12:54:33.388Z,4.18
2022-08-31T12:57:14.344Z,5.50
2022-08-31T13:00:01.601Z,3.75
2022-08-31T13:02:33.051Z,4.50
2022-08-31T13:05:01.390Z,5.68
2022-08-31T13:07:33.925Z,4.43
2022-08-31T13:10:09.073Z,5.00
2022-08-31T13:12:37.141Z,4.70
2022-08-31T13:15:08.918Z,3.88
2022-08-31T13:17:40.162Z,4.13
2022-08-31T13:20:07.348Z,5.68
2022-08-31T13:22:37.012Z,4.00
2022-08-31T13:25:19.902Z,4.70
2022-08-31T13:27:51.117Z,6.53
2022-08-31T13:30:21.137Z,3.92
2022-08-31T13:32:49.858Z,4.63
2022-08-31T13:35:20.053Z,4.63
2022-08-31T13:38:00.334Z,5.20
2022-08-31T13:40:27.995Z,4.20
2022-08-31T13:42:57.361Z,4.22
2022-08-31T13:45:28.306Z,5.80
2022-08-31T13:48:11.867Z,4.82
2022-08-31T13:50:48.797Z,4.00
2022-08-31T13:53:34.429Z,5.18
2022-08-31T13:56:21.808Z,4.20
2022-08-31T13:58:48.636Z,3.80
2022-08-31T14:01:24.597Z,3.78
2022-08-31T14:03:54.531Z,5.15
2022-08-31T14:06:32.785Z,5.07
2022-08-31T14:09:02.170Z,4.75
2022-08-31T14:11:29.825Z,4.40
2022-08-31T14:14:04.721Z,4.47
2022-08-31T14:16:43.440Z,4.35
2022-08-31T14:19:10.940Z,4.70
2022-08-31T14:21:40.170Z,3.65
2022-08-31T14:24:08.267Z,3.53
2022-08-31T14:26:38.033Z,3.92
2022-08-31T14:29:07.183Z,4.55
2022-08-31T14:31:35.982Z,3.80
2022-08-31T14:34:16.882Z,3.47
2022-08-31T14:36:43.994Z,3.15
2022-08-31T14:39:10.696Z,4.35
2022-08-31T14:41:37.440Z,3.78
2022-08-31T14:44:07.087Z,3.63
2022-08-31T14:46:34.886Z,3.80
2022-08-31T14:49:01.471Z,3.85
2022-08-31T14:51:28.020Z,4.75
2022-08-31T14:53:55.369Z,4.13
2022-08-31T14:56:21.932Z,3.92
2022-08-31T14:58:48.574Z,3.00
2022-08-31T15:01:15.447Z,3.42
2022-08-31T15:03:42.011Z,3.55
2022-08-31T15:06:08.615Z,3.53
2022-08-31T15:08:38.257Z,3.80
2022-08-31T15:11:06.034Z,3.70
2022-08-31T15:13:33.343Z,3.35
2022-08-31T15:16:01.741Z,3.65
2022-08-31T15:18:28.295Z,3.70
2022-08-31T15:20:54.858Z,3.53
2022-08-31T15:23:22.129Z,3.50
2022-08-31T15:25:48.704Z,3.47
2022-08-31T15:28:15.279Z,3.55
2022-08-31T15:30:41.922Z,4.38
2022-08-31T15:33:08.451Z,4.20
2022-08-31T15:35:35.642Z,4.82
2022-08-31T15:38:02.502Z,4.50
2022-08-31T15:40:35.478Z,4.20
2022-08-31T15:43:04.892Z,4.47
2022-08-31T15:45:31.481Z,4.53
2022-08-31T15:47:58.718Z,4.47
2022-08-31T15:50:31.832Z,4.43
2022-08-31T15:55:26.369Z,5.35
2022-08-31T15:57:54.600Z,4.68
2022-08-31T16:00:23.161Z,5.18
2022-08-31T16:02:50.204Z,4.85
2022-08-31T16:05:16.717Z,5.22
2022-08-31T16:07:43.245Z,4.30
2022-08-31T16:10:12.628Z,3.97
2022-08-31T16:12:40.404Z,5.63
2022-08-31T16:15:08.587Z,5.07
2022-08-31T16:17:35.121Z,5.28
2022-08-31T16:20:01.863Z,5.35
2022-08-31T16:22:30.569Z,6.30
2022-08-31T16:24:57.588Z,5.72
2022-08-31T16:27:24.254Z,6.25
2022-08-31T16:29:50.992Z,5.45
2022-08-31T16:32:18.745Z,6.20
2022-08-31T16:34:45.627Z,5.53
2022-08-31T16:37:12.155Z,5.22
2022-08-31T16:39:42.184Z,5.65
2022-08-31T16:42:10.833Z,5.95
2022-08-31T16:44:37.865Z,6.20
2022-08-31T16:47:06.663Z,4.90
2022-08-31T16:49:33.625Z,5.38
2022-08-31T16:52:01.678Z,6.00
2022-08-31T16:54:28.217Z,5.60
2022-08-31T16:56:54.821Z,5.88
2022-08-31T16:59:21.383Z,5.65
2022-08-31T17:01:47.954Z,5.82
2022-08-31T17:04:29.486Z,5.70
2022-08-31T17:07:04.388Z,5.88
2022-08-31T17:09:31.000Z,5.30
2022-08-31T17:12:00.192Z,5.38
2022-08-31T17:14:30.525Z,5.22
2022-08-31T17:16:57.039Z,5.85
2022-08-31T17:19:23.564Z,4.78
2022-08-31T17:21:50.614Z,5.00
2022-08-31T17:24:28.417Z,5.32
2022-08-31T17:26:56.715Z,4.90
2022-08-31T17:29:23.251Z,5.72
2022-08-31T17:31:50.364Z,5.10
2022-08-31T17:34:23.801Z,5.38
2022-08-31T17:36:50.998Z,4.25
2022-08-31T17:39:19.803Z,4.65
2022-08-31T17:41:46.871Z,4.57
2022-08-31T17:44:14.293Z,5.20
2022-08-31T17:46:40.820Z,4.88
2022-08-31T17:49:07.350Z,5.78
2022-08-31T17:51:34.818Z,6.05
2022-08-31T17:54:07.936Z,4.72
2022-08-31T17:56:41.207Z,6.00
2022-08-31T17:59:17.086Z,5.47
2022-08-31T18:01:46.132Z,4.97
2022-08-31T18:04:13.842Z,4.85
2022-08-31T18:06:41.451Z,6.25
2022-08-31T18:09:08.042Z,6.25
2022-08-31T18:11:34.759Z,4.72
2022-08-31T18:14:01.355Z,4.80
2022-08-31T18:16:27.955Z,5.10
2022-08-31T18:18:54.545Z,5.45
2022-08-31T18:21:23.894Z,5.53
2022-08-31T18:23:51.679Z,5.85
2022-08-31T18:26:25.599Z,5.55
2022-08-31T18:31:24.940Z,5.78
2022-08-31T18:33:52.591Z,6.20
2022-08-31T18:36:21.656Z,6.53
2022-08-31T18:38:50.731Z,7.07
2022-08-31T18:41:19.763Z,6.30
2022-08-31T18:43:46.364Z,7.57
2022-08-31T18:46:13.008Z,7.10
2022-08-31T18:48:40.069Z,6.78
2022-08-31T18:51:08.990Z,6.90
2022-08-31T18:53:35.484Z,7.07
2022-08-31T18:56:08.627Z,6.90
2022-08-31T18:58:36.351Z,6.97
2022-08-31T19:01:03.114Z,6.80
2022-08-31T19:03:30.049Z,6.00
2022-08-31T19:05:57.356Z,6.35
2022-08-31T19:08:25.028Z,6.00
2022-08-31T19:10:52.806Z,6.15
2022-08-31T19:13:19.459Z,6.25
2022-08-31T19:15:46.164Z,5.97
2022-08-31T19:18:14.099Z,5.82
2022-08-31T19:20:41.253Z,4.82
2022-08-31T19:23:08.329Z,5.47
2022-08-31T19:25:44.179Z,5.55
2022-08-31T19:28:11.436Z,6.65
2022-08-31T19:30:38.301Z,6.78
2022-08-31T19:33:05.981Z,7.28
2022-08-31T19:35:32.503Z,7.55
2022-08-31T19:37:59.096Z,6.85
2022-08-31T19:40:35.633Z,6.55
2022-08-31T19:43:42.973Z,6.72
2022-08-31T19:45:49.896Z,6.57
2022-08-31T19:48:17.228Z,5.00
2022-08-31T19:50:43.874Z,6.05
2022-08-31T19:53:10.543Z,5.97
2022-08-31T19:55:37.047Z,6.28
2022-08-31T19:58:03.547Z,5.47
2022-08-31T20:00:30.138Z,5.20
2022-08-31T20:02:56.718Z,6.32
2022-08-31T20:05:23.318Z,6.15
2022-08-31T20:07:49.833Z,4.93
2022-08-31T20:10:21.798Z,4.95
2022-08-31T20:12:50.663Z,4.75
2022-08-31T20:15:19.107Z,6.28
2022-08-31T20:17:45.622Z,5.18
2022-08-31T20:20:12.159Z,5.72
2022-08-31T20:22:38.693Z,5.35
2022-08-31T20:25:05.636Z,4.75
2022-08-31T20:27:34.760Z,5.00
2022-08-31T20:30:01.904Z,5.53
2022-08-31T20:32:28.396Z,6.47
2022-08-31T20:34:57.968Z,6.82
2022-08-31T20:37:24.841Z,6.43
2022-08-31T20:39:51.373Z,7.38
2022-08-31T20:42:17.919Z,8.00
2022-08-31T20:44:44.433Z,9.32
2022-08-31T20:47:15.579Z,6.35
2022-08-31T20:49:45.126Z,8.15
2022-08-31T20:52:14.046Z,6.40
2022-08-31T20:54:41.156Z,7.10
2022-08-31T20:57:07.817Z,7.03
2022-08-31T20:59:34.731Z,7.57
2022-08-31T21:02:03.826Z,6.63
2022-08-31T21:04:31.977Z,7.60
2022-08-31T21:06:59.870Z,8.32
2022-08-31T21:09:27.119Z,8.13
2022-08-31T21:11:55.520Z,7.22
2022-08-31T21:14:22.833Z,6.78
2022-08-31T21:16:49.840Z,9.00
2022-08-31T21:19:19.199Z,9.45
2022-08-31T21:21:46.702Z,8.82
2022-08-31T21:24:16.107Z,9.15
2022-08-31T21:26:43.624Z,9.43
2022-08-31T21:29:12.852Z,8.95
2022-08-31T21:31:43.707Z,8.15
2022-08-31T21:34:18.263Z,6.35
2022-08-31T21:36:45.723Z,6.72
2022-08-31T21:39:14.762Z,7.82
2022-08-31T21:41:42.196Z,7.70
2022-08-31T21:44:11.034Z,10.40
2022-08-31T21:46:38.348Z,8.02
2022-08-31T21:49:05.866Z,7.45
2022-08-31T21:51:38.907Z,8.45
2022-08-31T21:54:07.861Z,8.83
2022-08-31T21:56:42.057Z,11.30
2022-08-31T21:59:08.631Z,11.38
2022-08-31T22:01:35.560Z,8.95
2022-08-31T22:04:02.412Z,11.45
2022-08-31T22:06:31.269Z,7.85
2022-08-31T22:09:04.988Z,7.80
2022-08-31T22:11:35.380Z,8.52
2022-08-31T22:14:02.364Z,8.82
2022-08-31T22:16:28.935Z,8.70
2022-08-31T22:19:01.366Z,9.27
2022-08-31T22:21:31.224Z,11.00
2022-08-31T22:24:01.070Z,11.70
2022-08-31T22:26:30.290Z,13.88
2022-08-31T22:28:56.909Z,11.75
2022-08-31T22:31:23.556Z,11.93
2022-08-31T22:33:50.165Z,10.52
2022-08-31T22:36:31.762Z,9.95
2022-08-31T22:39:11.302Z,12.88
2022-08-31T22:41:39.698Z,13.30
2022-08-31T22:44:08.473Z,11.07
2022-08-31T22:46:36.361Z,13.05
2022-08-31T22:49:03.668Z,10.50
2022-08-31T22:51:30.235Z,10.57
2022-08-31T22:53:56.782Z,11.85
2022-08-31T22:56:29.657Z,14.65
2022-08-31T22:58:59.179Z,11.85
2022-08-31T23:01:33.473Z,8.10
2022-08-31T23:04:01.768Z,8.43
2022-08-31T23:06:29.086Z,10.20
2022-08-31T23:08:56.852Z,10.43
2022-08-31T23:11:25.027Z,11.23
2022-08-31T23:13:54.683Z,10.90
2022-08-31T23:16:35.405Z,10.32
2022-08-31T23:19:03.824Z,12.20
2022-08-31T23:21:32.856Z,10.75
2022-08-31T23:24:00.802Z,12.55
2022-08-31T23:26:29.357Z,10.15
2022-08-31T23:28:58.802Z,11.70
2022-08-31T23:31:26.967Z,12.10
2022-08-31T23:33:54.079Z,13.77
2022-08-31T23:36:23.292Z,12.60
2022-08-31T23:38:49.835Z,11.30
2022-08-31T23:41:17.845Z,10.98
2022-08-31T23:43:47.855Z,11.85
2022-08-31T23:46:14.508Z,10.82
2022-08-31T23:48:41.179Z,9.10
2022-08-31T23:51:11.124Z,13.70
2022-08-31T23:53:37.784Z,14.02
2022-08-31T23:56:08.394Z,14.68
2022-08-31T23:58:35.976Z,14.05
